sensor_id;sensor_type;location;lat;lon;timestamp;P1;durP1;ratioP1;P2;durP2;ratioP2
80425;SDS011;69766;51.476;5.704;2023-07-30T00:01:29;7.95;;;2.90;;
80425;SDS011;69766;51.476;5.704;2023-07-30T00:03:57;10.75;;;3.60;;
80425;SDS011;69766;51.476;5.704;2023-07-30T00:06:35;8.40;;;3.42;;
80425;SDS011;69766;51.476;5.704;2023-07-30T00:09:10;8.10;;;2.75;;
80425;SDS011;69766;51.476;5.704;2023-07-30T00:11:39;6.07;;;2.95;;
80425;SDS011;69766;51.476;5.704;2023-07-30T00:14:07;7.50;;;2.90;;
80425;SDS011;69766;51.476;5.704;2023-07-30T00:16:36;7.63;;;3.05;;
80425;SDS011;69766;51.476;5.704;2023-07-30T00:19:11;9.55;;;3.22;;
80425;SDS011;69766;51.476;5.704;2023-07-30T00:21:39;9.30;;;2.78;;
80425;SDS011;69766;51.476;5.704;2023-07-30T00:24:11;9.38;;;3.67;;
80425;SDS011;69766;51.476;5.704;2023-07-30T00:26:37;8.35;;;2.88;;
80425;SDS011;69766;51.476;5.704;2023-07-30T00:29:06;6.28;;;2.83;;
80425;SDS011;69766;51.476;5.704;2023-07-30T00:31:32;10.35;;;3.20;;
80425;SDS011;69766;51.476;5.704;2023-07-30T00:33:58;12.43;;;3.63;;
80425;SDS011;69766;51.476;5.704;2023-07-30T00:36:26;11.13;;;3.30;;
80425;SDS011;69766;51.476;5.704;2023-07-30T00:39:01;11.27;;;3.25;;
80425;SDS011;69766;51.476;5.704;2023-07-30T00:41:30;8.55;;;3.05;;
80425;SDS011;69766;51.476;5.704;2023-07-30T00:43:58;7.65;;;2.75;;
80425;SDS011;69766;51.476;5.704;2023-07-30T00:46:26;10.43;;;3.63;;
80425;SDS011;69766;51.476;5.704;2023-07-30T00:48:52;10.45;;;3.58;;
80425;SDS011;69766;51.476;5.704;2023-07-30T00:51:20;10.30;;;3.08;;
80425;SDS011;69766;51.476;5.704;2023-07-30T00:53:49;14.55;;;4.75;;
80425;SDS011;69766;51.476;5.704;2023-07-30T00:56:18;8.77;;;3.65;;
80425;SDS011;69766;51.476;5.704;2023-07-30T00:58:47;9.88;;;3.00;;
80425;SDS011;69766;51.476;5.704;2023-07-30T01:04:24;8.45;;;3.05;;
80425;SDS011;69766;51.476;5.704;2023-07-30T01:06:50;13.13;;;3.60;;
80425;SDS011;69766;51.476;5.704;2023-07-30T01:09:16;11.05;;;3.60;;
80425;SDS011;69766;51.476;5.704;2023-07-30T01:11:42;7.13;;;2.67;;
80425;SDS011;69766;51.476;5.704;2023-07-30T01:14:18;11.85;;;3.70;;
80425;SDS011;69766;51.476;5.704;2023-07-30T01:16:55;12.10;;;3.38;;
80425;SDS011;69766;51.476;5.704;2023-07-30T01:19:23;11.70;;;3.25;;
80425;SDS011;69766;51.476;5.704;2023-07-30T01:21:52;15.60;;;3.45;;
80425;SDS011;69766;51.476;5.704;2023-07-30T01:24:21;10.63;;;3.05;;
80425;SDS011;69766;51.476;5.704;2023-07-30T01:26:48;17.05;;;4.28;;
80425;SDS011;69766;51.476;5.704;2023-07-30T01:29:34;9.00;;;3.10;;
80425;SDS011;69766;51.476;5.704;2023-07-30T01:32:07;8.05;;;3.55;;
80425;SDS011;69766;51.476;5.704;2023-07-30T01:34:35;9.35;;;3.15;;
80425;SDS011;69766;51.476;5.704;2023-07-30T01:37:01;10.70;;;2.95;;
80425;SDS011;69766;51.476;5.704;2023-07-30T01:39:28;10.85;;;3.13;;
80425;SDS011;69766;51.476;5.704;2023-07-30T01:41:54;9.95;;;3.50;;
80425;SDS011;69766;51.476;5.704;2023-07-30T01:44:20;10.55;;;3.38;;
80425;SDS011;69766;51.476;5.704;2023-07-30T01:46:46;11.93;;;3.30;;
80425;SDS011;69766;51.476;5.704;2023-07-30T01:49:12;8.80;;;3.35;;
80425;SDS011;69766;51.476;5.704;2023-07-30T01:51:37;11.38;;;3.38;;
80425;SDS011;69766;51.476;5.704;2023-07-30T01:54:03;13.30;;;3.60;;
80425;SDS011;69766;51.476;5.704;2023-07-30T01:56:29;11.57;;;3.45;;
80425;SDS011;69766;51.476;5.704;2023-07-30T01:58:54;6.75;;;3.53;;
80425;SDS011;69766;51.476;5.704;2023-07-30T02:01:20;12.23;;;3.20;;
80425;SDS011;69766;51.476;5.704;2023-07-30T02:03:46;9.88;;;3.40;;
80425;SDS011;69766;51.476;5.704;2023-07-30T02:06:11;7.88;;;2.92;;
80425;SDS011;69766;51.476;5.704;2023-07-30T02:08:37;10.98;;;3.72;;
80425;SDS011;69766;51.476;5.704;2023-07-30T02:11:03;9.88;;;2.70;;
80425;SDS011;69766;51.476;5.704;2023-07-30T02:13:29;8.27;;;3.20;;
80425;SDS011;69766;51.476;5.704;2023-07-30T02:15:54;12.38;;;3.28;;
80425;SDS011;69766;51.476;5.704;2023-07-30T02:18:20;10.88;;;3.90;;
80425;SDS011;69766;51.476;5.704;2023-07-30T02:20:46;11.77;;;3.53;;
80425;SDS011;69766;51.476;5.704;2023-07-30T02:23:13;13.23;;;3.03;;
80425;SDS011;69766;51.476;5.704;2023-07-30T02:25:40;14.90;;;3.33;;
80425;SDS011;69766;51.476;5.704;2023-07-30T02:28:06;13.63;;;3.30;;
80425;SDS011;69766;51.476;5.704;2023-07-30T02:30:33;9.38;;;3.13;;
80425;SDS011;69766;51.476;5.704;2023-07-30T02:32:59;9.70;;;3.47;;
80425;SDS011;69766;51.476;5.704;2023-07-30T02:35:24;12.13;;;3.63;;
80425;SDS011;69766;51.476;5.704;2023-07-30T02:37:50;12.23;;;3.42;;
80425;SDS011;69766;51.476;5.704;2023-07-30T02:40:16;12.02;;;3.00;;
80425;SDS011;69766;51.476;5.704;2023-07-30T02:42:41;12.65;;;3.78;;
80425;SDS011;69766;51.476;5.704;2023-07-30T02:45:07;13.57;;;3.67;;
80425;SDS011;69766;51.476;5.704;2023-07-30T02:47:33;11.02;;;3.20;;
80425;SDS011;69766;51.476;5.704;2023-07-30T02:49:59;11.15;;;3.25;;
80425;SDS011;69766;51.476;5.704;2023-07-30T02:52:24;11.20;;;3.65;;
80425;SDS011;69766;51.476;5.704;2023-07-30T02:54:50;19.25;;;3.70;;
80425;SDS011;69766;51.476;5.704;2023-07-30T02:57:16;12.40;;;3.30;;
80425;SDS011;69766;51.476;5.704;2023-07-30T02:59:41;13.68;;;3.45;;
80425;SDS011;69766;51.476;5.704;2023-07-30T03:02:07;10.95;;;3.58;;
80425;SDS011;69766;51.476;5.704;2023-07-30T03:04:33;11.63;;;3.83;;
80425;SDS011;69766;51.476;5.704;2023-07-30T03:06:58;9.90;;;3.17;;
80425;SDS011;69766;51.476;5.704;2023-07-30T03:09:24;11.13;;;3.60;;
80425;SDS011;69766;51.476;5.704;2023-07-30T03:11:50;11.90;;;3.72;;
80425;SDS011;69766;51.476;5.704;2023-07-30T03:14:16;13.75;;;3.88;;
80425;SDS011;69766;51.476;5.704;2023-07-30T03:16:45;10.65;;;3.45;;
80425;SDS011;69766;51.476;5.704;2023-07-30T03:19:14;14.60;;;3.55;;
80425;SDS011;69766;51.476;5.704;2023-07-30T03:21:40;13.30;;;4.00;;
80425;SDS011;69766;51.476;5.704;2023-07-30T03:24:06;13.30;;;3.50;;
80425;SDS011;69766;51.476;5.704;2023-07-30T03:26:32;11.75;;;3.72;;
80425;SDS011;69766;51.476;5.704;2023-07-30T03:28:57;14.55;;;4.63;;
80425;SDS011;69766;51.476;5.704;2023-07-30T03:31:23;13.75;;;3.72;;
80425;SDS011;69766;51.476;5.704;2023-07-30T03:33:49;13.93;;;4.20;;
80425;SDS011;69766;51.476;5.704;2023-07-30T03:36:14;18.33;;;3.80;;
80425;SDS011;69766;51.476;5.704;2023-07-30T03:38:40;13.93;;;3.75;;
80425;SDS011;69766;51.476;5.704;2023-07-30T03:41:06;14.38;;;3.92;;
80425;SDS011;69766;51.476;5.704;2023-07-30T03:43:32;15.73;;;3.60;;
80425;SDS011;69766;51.476;5.704;2023-07-30T03:45:59;18.60;;;3.85;;
80425;SDS011;69766;51.476;5.704;2023-07-30T03:48:24;11.80;;;3.72;;
80425;SDS011;69766;51.476;5.704;2023-07-30T03:50:50;15.55;;;4.13;;
80425;SDS011;69766;51.476;5.704;2023-07-30T03:53:17;12.20;;;3.70;;
80425;SDS011;69766;51.476;5.704;2023-07-30T03:55:42;11.27;;;3.60;;
80425;SDS011;69766;51.476;5.704;2023-07-30T03:58:08;12.45;;;3.60;;
80425;SDS011;69766;51.476;5.704;2023-07-30T04:00:34;16.38;;;3.40;;
80425;SDS011;69766;51.476;5.704;2023-07-30T04:02:59;24.40;;;3.88;;
80425;SDS011;69766;51.476;5.704;2023-07-30T04:05:25;11.65;;;3.95;;
80425;SDS011;69766;51.476;5.704;2023-07-30T04:07:51;13.80;;;3.92;;
80425;SDS011;69766;51.476;5.704;2023-07-30T04:10:16;15.20;;;4.30;;
80425;SDS011;69766;51.476;5.704;2023-07-30T04:12:42;16.77;;;4.53;;
80425;SDS011;69766;51.476;5.704;2023-07-30T04:15:08;15.70;;;3.72;;
80425;SDS011;69766;51.476;5.704;2023-07-30T04:17:35;16.55;;;3.85;;
80425;SDS011;69766;51.476;5.704;2023-07-30T04:20:01;10.73;;;3.85;;
80425;SDS011;69766;51.476;5.704;2023-07-30T04:22:27;17.30;;;4.50;;
80425;SDS011;69766;51.476;5.704;2023-07-30T04:24:53;15.48;;;4.75;;
80425;SDS011;69766;51.476;5.704;2023-07-30T04:27:19;18.17;;;5.47;;
80425;SDS011;69766;51.476;5.704;2023-07-30T04:29:45;16.20;;;4.65;;
80425;SDS011;69766;51.476;5.704;2023-07-30T04:32:10;20.35;;;5.45;;
80425;SDS011;69766;51.476;5.704;2023-07-30T04:34:36;19.83;;;5.38;;
80425;SDS011;69766;51.476;5.704;2023-07-30T04:37:03;22.20;;;6.65;;
80425;SDS011;69766;51.476;5.704;2023-07-30T04:39:29;20.02;;;5.45;;
80425;SDS011;69766;51.476;5.704;2023-07-30T04:41:57;17.13;;;6.70;;
80425;SDS011;69766;51.476;5.704;2023-07-30T04:44:22;27.77;;;7.50;;
80425;SDS011;69766;51.476;5.704;2023-07-30T04:46:48;20.45;;;6.60;;
80425;SDS011;69766;51.476;5.704;2023-07-30T04:49:14;21.65;;;6.93;;
80425;SDS011;69766;51.476;5.704;2023-07-30T04:51:40;17.13;;;6.85;;
80425;SDS011;69766;51.476;5.704;2023-07-30T04:54:05;20.83;;;7.40;;
80425;SDS011;69766;51.476;5.704;2023-07-30T04:56:31;20.80;;;6.43;;
80425;SDS011;69766;51.476;5.704;2023-07-30T04:59:04;28.83;;;7.15;;
80425;SDS011;69766;51.476;5.704;2023-07-30T05:01:50;15.85;;;6.70;;
80425;SDS011;69766;51.476;5.704;2023-07-30T05:04:16;21.63;;;6.47;;
80425;SDS011;69766;51.476;5.704;2023-07-30T05:06:41;19.00;;;6.28;;
80425;SDS011;69766;51.476;5.704;2023-07-30T05:09:07;21.17;;;6.55;;
80425;SDS011;69766;51.476;5.704;2023-07-30T05:11:33;19.05;;;6.50;;
80425;SDS011;69766;51.476;5.704;2023-07-30T05:13:59;18.63;;;6.80;;
80425;SDS011;69766;51.476;5.704;2023-07-30T05:16:24;18.67;;;5.97;;
80425;SDS011;69766;51.476;5.704;2023-07-30T05:18:50;20.52;;;6.03;;
80425;SDS011;69766;51.476;5.704;2023-07-30T05:21:16;15.00;;;5.72;;
80425;SDS011;69766;51.476;5.704;2023-07-30T05:23:41;21.60;;;6.35;;
80425;SDS011;69766;51.476;5.704;2023-07-30T05:26:07;19.73;;;5.43;;
80425;SDS011;69766;51.476;5.704;2023-07-30T05:28:33;16.35;;;5.65;;
80425;SDS011;69766;51.476;5.704;2023-07-30T05:30:58;18.00;;;6.97;;
80425;SDS011;69766;51.476;5.704;2023-07-30T05:33:24;13.23;;;5.35;;
80425;SDS011;69766;51.476;5.704;2023-07-30T05:35:49;16.92;;;6.00;;
80425;SDS011;69766;51.476;5.704;2023-07-30T05:38:15;14.48;;;5.18;;
80425;SDS011;69766;51.476;5.704;2023-07-30T05:40:41;15.40;;;5.07;;
80425;SDS011;69766;51.476;5.704;2023-07-30T05:43:07;17.30;;;5.30;;
80425;SDS011;69766;51.476;5.704;2023-07-30T05:45:33;27.48;;;5.68;;
80425;SDS011;69766;51.476;5.704;2023-07-30T05:47:59;26.55;;;5.85;;
80425;SDS011;69766;51.476;5.704;2023-07-30T05:50:25;23.77;;;6.13;;
80425;SDS011;69766;51.476;5.704;2023-07-30T05:52:50;19.95;;;5.32;;
80425;SDS011;69766;51.476;5.704;2023-07-30T05:55:16;13.98;;;4.53;;
80425;SDS011;69766;51.476;5.704;2023-07-30T05:57:42;24.23;;;5.85;;
80425;SDS011;69766;51.476;5.704;2023-07-30T06:00:07;20.63;;;5.30;;
80425;SDS011;69766;51.476;5.704;2023-07-30T06:02:33;16.73;;;4.57;;
80425;SDS011;69766;51.476;5.704;2023-07-30T06:04:59;19.58;;;5.80;;
80425;SDS011;69766;51.476;5.704;2023-07-30T06:07:24;22.38;;;5.50;;
80425;SDS011;69766;51.476;5.704;2023-07-30T06:09:50;19.02;;;5.15;;
80425;SDS011;69766;51.476;5.704;2023-07-30T06:12:16;20.75;;;4.50;;
80425;SDS011;69766;51.476;5.704;2023-07-30T06:14:41;26.52;;;6.00;;
80425;SDS011;69766;51.476;5.704;2023-07-30T06:17:07;16.35;;;5.75;;
80425;SDS011;69766;51.476;5.704;2023-07-30T06:19:33;17.52;;;5.25;;
80425;SDS011;69766;51.476;5.704;2023-07-30T06:21:59;20.73;;;5.30;;
80425;SDS011;69766;51.476;5.704;2023-07-30T06:24:24;20.05;;;5.22;;
80425;SDS011;69766;51.476;5.704;2023-07-30T06:26:50;17.30;;;4.90;;
80425;SDS011;69766;51.476;5.704;2023-07-30T06:29:16;15.45;;;5.07;;
80425;SDS011;69766;51.476;5.704;2023-07-30T06:31:41;20.98;;;5.70;;
80425;SDS011;69766;51.476;5.704;2023-07-30T06:34:07;19.20;;;4.47;;
80425;SDS011;69766;51.476;5.704;2023-07-30T06:36:33;20.38;;;5.40;;
80425;SDS011;69766;51.476;5.704;2023-07-30T06:38:58;20.58;;;6.35;;
80425;SDS011;69766;51.476;5.704;2023-07-30T06:41:24;23.70;;;5.80;;
80425;SDS011;69766;51.476;5.704;2023-07-30T06:43:50;17.35;;;5.30;;
80425;SDS011;69766;51.476;5.704;2023-07-30T06:46:16;18.85;;;5.68;;
80425;SDS011;69766;51.476;5.704;2023-07-30T06:48:41;22.27;;;5.95;;
80425;SDS011;69766;51.476;5.704;2023-07-30T06:51:10;18.55;;;5.32;;
80425;SDS011;69766;51.476;5.704;2023-07-30T06:56:03;24.08;;;6.13;;
80425;SDS011;69766;51.476;5.704;2023-07-30T06:58:29;20.23;;;5.35;;
80425;SDS011;69766;51.476;5.704;2023-07-30T07:00:54;33.92;;;6.45;;
80425;SDS011;69766;51.476;5.704;2023-07-30T07:03:20;16.02;;;5.47;;
80425;SDS011;69766;51.476;5.704;2023-07-30T07:05:52;18.48;;;5.00;;
80425;SDS011;69766;51.476;5.704;2023-07-30T07:08:21;18.65;;;4.70;;
80425;SDS011;69766;51.476;5.704;2023-07-30T07:10:47;24.00;;;4.60;;
80425;SDS011;69766;51.476;5.704;2023-07-30T07:13:14;18.73;;;5.00;;
80425;SDS011;69766;51.476;5.704;2023-07-30T07:15:43;15.05;;;4.57;;
80425;SDS011;69766;51.476;5.704;2023-07-30T07:18:09;22.42;;;4.47;;
80425;SDS011;69766;51.476;5.704;2023-07-30T07:20:35;19.70;;;4.47;;
80425;SDS011;69766;51.476;5.704;2023-07-30T07:23:02;22.92;;;5.32;;
80425;SDS011;69766;51.476;5.704;2023-07-30T07:25:27;16.40;;;4.47;;
80425;SDS011;69766;51.476;5.704;2023-07-30T07:27:53;17.55;;;4.07;;
80425;SDS011;69766;51.476;5.704;2023-07-30T07:30:19;20.92;;;4.60;;
80425;SDS011;69766;51.476;5.704;2023-07-30T07:32:44;14.57;;;3.65;;
80425;SDS011;69766;51.476;5.704;2023-07-30T07:35:15;17.30;;;4.18;;
80425;SDS011;69766;51.476;5.704;2023-07-30T07:37:40;15.95;;;3.28;;
80425;SDS011;69766;51.476;5.704;2023-07-30T07:40:06;14.40;;;3.63;;
80425;SDS011;69766;51.476;5.704;2023-07-30T07:42:34;15.07;;;3.45;;
80425;SDS011;69766;51.476;5.704;2023-07-30T07:45:00;15.65;;;3.35;;
80425;SDS011;69766;51.476;5.704;2023-07-30T07:47:26;13.02;;;3.08;;
80425;SDS011;69766;51.476;5.704;2023-07-30T07:49:52;13.88;;;2.97;;
80425;SDS011;69766;51.476;5.704;2023-07-30T07:52:17;19.75;;;3.40;;
80425;SDS011;69766;51.476;5.704;2023-07-30T07:54:44;17.15;;;3.00;;
80425;SDS011;69766;51.476;5.704;2023-07-30T07:57:10;15.65;;;3.30;;
80425;SDS011;69766;51.476;5.704;2023-07-30T07:59:36;10.93;;;2.92;;
80425;SDS011;69766;51.476;5.704;2023-07-30T08:02:02;14.25;;;3.40;;
80425;SDS011;69766;51.476;5.704;2023-07-30T08:04:27;15.65;;;2.80;;
80425;SDS011;69766;51.476;5.704;2023-07-30T08:06:53;17.38;;;4.25;;
80425;SDS011;69766;51.476;5.704;2023-07-30T08:09:19;16.30;;;3.10;;
80425;SDS011;69766;51.476;5.704;2023-07-30T08:11:46;19.20;;;3.78;;
80425;SDS011;69766;51.476;5.704;2023-07-30T08:14:11;15.50;;;3.28;;
80425;SDS011;69766;51.476;5.704;2023-07-30T08:16:37;15.25;;;2.50;;
80425;SDS011;69766;51.476;5.704;2023-07-30T08:19:03;12.55;;;2.58;;
80425;SDS011;69766;51.476;5.704;2023-07-30T08:21:28;15.98;;;3.38;;
80425;SDS011;69766;51.476;5.704;2023-07-30T08:23:54;10.02;;;3.08;;
80425;SDS011;69766;51.476;5.704;2023-07-30T08:26:20;17.05;;;3.72;;
80425;SDS011;69766;51.476;5.704;2023-07-30T08:28:45;13.43;;;2.80;;
80425;SDS011;69766;51.476;5.704;2023-07-30T08:31:11;11.93;;;2.60;;
80425;SDS011;69766;51.476;5.704;2023-07-30T08:33:37;12.63;;;2.38;;
80425;SDS011;69766;51.476;5.704;2023-07-30T08:36:02;13.68;;;2.80;;
80425;SDS011;69766;51.476;5.704;2023-07-30T08:38:28;10.68;;;3.08;;
80425;SDS011;69766;51.476;5.704;2023-07-30T08:40:55;18.35;;;2.90;;
80425;SDS011;69766;51.476;5.704;2023-07-30T08:43:21;18.52;;;3.33;;
80425;SDS011;69766;51.476;5.704;2023-07-30T08:45:47;12.57;;;3.10;;
80425;SDS011;69766;51.476;5.704;2023-07-30T08:48:13;15.82;;;3.80;;
80425;SDS011;69766;51.476;5.704;2023-07-30T08:50:39;12.23;;;3.42;;
80425;SDS011;69766;51.476;5.704;2023-07-30T08:53:05;16.02;;;3.67;;
80425;SDS011;69766;51.476;5.704;2023-07-30T08:55:33;12.15;;;2.97;;
80425;SDS011;69766;51.476;5.704;2023-07-30T08:58:02;13.57;;;3.05;;
80425;SDS011;69766;51.476;5.704;2023-07-30T09:00:36;16.95;;;3.45;;
80425;SDS011;69766;51.476;5.704;2023-07-30T09:03:03;9.52;;;2.63;;
80425;SDS011;69766;51.476;5.704;2023-07-30T09:05:30;11.60;;;3.00;;
80425;SDS011;69766;51.476;5.704;2023-07-30T09:07:56;12.40;;;2.67;;
80425;SDS011;69766;51.476;5.704;2023-07-30T09:10:22;14.20;;;3.03;;
80425;SDS011;69766;51.476;5.704;2023-07-30T09:12:55;15.48;;;3.08;;
80425;SDS011;69766;51.476;5.704;2023-07-30T09:15:31;13.75;;;2.83;;
80425;SDS011;69766;51.476;5.704;2023-07-30T09:17:59;12.93;;;2.75;;
80425;SDS011;69766;51.476;5.704;2023-07-30T09:20:39;12.73;;;3.13;;
80425;SDS011;69766;51.476;5.704;2023-07-30T09:23:06;22.30;;;3.67;;
80425;SDS011;69766;51.476;5.704;2023-07-30T09:25:33;14.40;;;2.50;;
80425;SDS011;69766;51.476;5.704;2023-07-30T09:27:59;14.98;;;3.05;;
80425;SDS011;69766;51.476;5.704;2023-07-30T09:30:25;11.52;;;2.78;;
80425;SDS011;69766;51.476;5.704;2023-07-30T09:32:53;14.13;;;2.80;;
80425;SDS011;69766;51.476;5.704;2023-07-30T09:35:20;14.18;;;3.67;;
80425;SDS011;69766;51.476;5.704;2023-07-30T09:37:47;10.55;;;2.97;;
80425;SDS011;69766;51.476;5.704;2023-07-30T09:40:13;11.60;;;2.60;;
80425;SDS011;69766;51.476;5.704;2023-07-30T09:42:46;10.30;;;2.70;;
80425;SDS011;69766;51.476;5.704;2023-07-30T09:45:20;10.85;;;2.25;;
80425;SDS011;69766;51.476;5.704;2023-07-30T09:47:49;9.90;;;2.47;;
80425;SDS011;69766;51.476;5.704;2023-07-30T09:50:18;9.55;;;2.22;;
80425;SDS011;69766;51.476;5.704;2023-07-30T09:52:45;10.27;;;2.30;;
80425;SDS011;69766;51.476;5.704;2023-07-30T09:55:11;7.13;;;2.00;;
80425;SDS011;69766;51.476;5.704;2023-07-30T09:57:37;8.45;;;2.30;;
80425;SDS011;69766;51.476;5.704;2023-07-30T10:00:04;12.27;;;2.22;;
80425;SDS011;69766;51.476;5.704;2023-07-30T10:02:31;10.52;;;1.70;;
80425;SDS011;69766;51.476;5.704;2023-07-30T10:05:02;8.45;;;1.80;;
80425;SDS011;69766;51.476;5.704;2023-07-30T10:07:31;9.43;;;2.05;;
80425;SDS011;69766;51.476;5.704;2023-07-30T10:09:58;8.48;;;2.15;;
80425;SDS011;69766;51.476;5.704;2023-07-30T10:12:28;12.53;;;1.97;;
80425;SDS011;69766;51.476;5.704;2023-07-30T10:14:57;5.88;;;1.92;;
80425;SDS011;69766;51.476;5.704;2023-07-30T10:17:23;9.95;;;1.92;;
80425;SDS011;69766;51.476;5.704;2023-07-30T10:19:49;9.05;;;2.38;;
80425;SDS011;69766;51.476;5.704;2023-07-30T10:27:23;12.43;;;2.38;;
80425;SDS011;69766;51.476;5.704;2023-07-30T10:29:51;12.23;;;2.35;;
80425;SDS011;69766;51.476;5.704;2023-07-30T10:32:40;9.43;;;2.83;;
80425;SDS011;69766;51.476;5.704;2023-07-30T10:35:07;6.70;;;2.33;;
80425;SDS011;69766;51.476;5.704;2023-07-30T10:37:33;7.13;;;1.55;;
80425;SDS011;69766;51.476;5.704;2023-07-30T10:39:59;11.05;;;2.08;;
80425;SDS011;69766;51.476;5.704;2023-07-30T10:42:32;6.38;;;1.40;;
80425;SDS011;69766;51.476;5.704;2023-07-30T10:44:59;5.80;;;1.60;;
80425;SDS011;69766;51.476;5.704;2023-07-30T10:47:26;5.63;;;1.50;;
80425;SDS011;69766;51.476;5.704;2023-07-30T10:49:52;9.80;;;1.67;;
80425;SDS011;69766;51.476;5.704;2023-07-30T10:52:19;5.50;;;1.42;;
80425;SDS011;69766;51.476;5.704;2023-07-30T10:54:48;8.77;;;1.73;;
80425;SDS011;69766;51.476;5.704;2023-07-30T10:57:14;7.60;;;1.38;;
80425;SDS011;69766;51.476;5.704;2023-07-30T10:59:41;4.97;;;1.15;;
80425;SDS011;69766;51.476;5.704;2023-07-30T11:02:07;8.30;;;1.65;;
80425;SDS011;69766;51.476;5.704;2023-07-30T11:04:34;5.55;;;1.38;;
80425;SDS011;69766;51.476;5.704;2023-07-30T11:07:00;9.60;;;1.67;;
80425;SDS011;69766;51.476;5.704;2023-07-30T11:09:26;5.22;;;1.80;;
80425;SDS011;69766;51.476;5.704;2023-07-30T11:11:55;12.73;;;2.00;;
80425;SDS011;69766;51.476;5.704;2023-07-30T11:14:22;6.55;;;1.40;;
80425;SDS011;69766;51.476;5.704;2023-07-30T11:16:54;8.38;;;1.17;;
80425;SDS011;69766;51.476;5.704;2023-07-30T11:19:23;6.65;;;1.55;;
80425;SDS011;69766;51.476;5.704;2023-07-30T11:21:50;8.00;;;1.65;;
80425;SDS011;69766;51.476;5.704;2023-07-30T11:24:17;5.85;;;1.30;;
80425;SDS011;69766;51.476;5.704;2023-07-30T11:26:43;6.93;;;1.48;;
80425;SDS011;69766;51.476;5.704;2023-07-30T11:29:18;8.95;;;1.75;;
80425;SDS011;69766;51.476;5.704;2023-07-30T11:31:45;6.78;;;1.52;;
80425;SDS011;69766;51.476;5.704;2023-07-30T11:34:11;5.35;;;1.50;;
80425;SDS011;69766;51.476;5.704;2023-07-30T11:36:40;4.97;;;1.40;;
80425;SDS011;69766;51.476;5.704;2023-07-30T11:39:07;4.80;;;1.80;;
80425;SDS011;69766;51.476;5.704;2023-07-30T11:41:33;5.05;;;1.27;;
80425;SDS011;69766;51.476;5.704;2023-07-30T11:44:00;5.85;;;1.65;;
80425;SDS011;69766;51.476;5.704;2023-07-30T11:46:25;8.57;;;1.27;;
80425;SDS011;69766;51.476;5.704;2023-07-30T11:48:52;5.53;;;1.38;;
80425;SDS011;69766;51.476;5.704;2023-07-30T11:56:25;5.50;;;1.40;;
80425;SDS011;69766;51.476;5.704;2023-07-30T11:59:01;4.28;;;1.25;;
80425;SDS011;69766;51.476;5.704;2023-07-30T12:01:32;3.30;;;1.00;;
80425;SDS011;69766;51.476;5.704;2023-07-30T12:04:00;4.05;;;1.20;;
80425;SDS011;69766;51.476;5.704;2023-07-30T12:06:40;5.25;;;2.08;;
80425;SDS011;69766;51.476;5.704;2023-07-30T12:09:17;6.90;;;1.60;;
80425;SDS011;69766;51.476;5.704;2023-07-30T12:11:47;6.28;;;1.23;;
80425;SDS011;69766;51.476;5.704;2023-07-30T12:14:14;3.15;;;1.23;;
80425;SDS011;69766;51.476;5.704;2023-07-30T12:16:40;5.15;;;1.58;;
80425;SDS011;69766;51.476;5.704;2023-07-30T12:19:06;7.70;;;1.80;;
80425;SDS011;69766;51.476;5.704;2023-07-30T12:21:32;8.38;;;1.40;;
80425;SDS011;69766;51.476;5.704;2023-07-30T12:23:58;7.20;;;2.30;;
80425;SDS011;69766;51.476;5.704;2023-07-30T12:26:23;7.30;;;1.80;;
80425;SDS011;69766;51.476;5.704;2023-07-30T12:28:49;7.53;;;1.40;;
80425;SDS011;69766;51.476;5.704;2023-07-30T12:31:15;6.80;;;1.52;;
80425;SDS011;69766;51.476;5.704;2023-07-30T12:33:40;5.40;;;1.30;;
80425;SDS011;69766;51.476;5.704;2023-07-30T12:36:06;4.50;;;1.30;;
80425;SDS011;69766;51.476;5.704;2023-07-30T12:38:32;6.38;;;1.38;;
80425;SDS011;69766;51.476;5.704;2023-07-30T12:40:57;4.47;;;1.20;;
80425;SDS011;69766;51.476;5.704;2023-07-30T12:43:23;5.45;;;1.35;;
80425;SDS011;69766;51.476;5.704;2023-07-30T12:45:49;5.05;;;1.42;;
80425;SDS011;69766;51.476;5.704;2023-07-30T12:48:15;5.10;;;1.17;;
80425;SDS011;69766;51.476;5.704;2023-07-30T12:50:40;7.68;;;1.60;;
80425;SDS011;69766;51.476;5.704;2023-07-30T12:53:06;5.07;;;1.55;;
80425;SDS011;69766;51.476;5.704;2023-07-30T12:55:31;4.03;;;1.58;;
80425;SDS011;69766;51.476;5.704;2023-07-30T12:57:57;7.75;;;1.70;;
80425;SDS011;69766;51.476;5.704;2023-07-30T13:00:23;6.22;;;2.13;;
80425;SDS011;69766;51.476;5.704;2023-07-30T13:02:49;5.30;;;1.52;;
80425;SDS011;69766;51.476;5.704;2023-07-30T13:05:20;5.68;;;1.48;;
80425;SDS011;69766;51.476;5.704;2023-07-30T13:07:46;7.00;;;1.77;;
80425;SDS011;69766;51.476;5.704;2023-07-30T13:10:12;4.28;;;1.38;;
80425;SDS011;69766;51.476;5.704;2023-07-30T13:12:37;5.63;;;1.65;;
80425;SDS011;69766;51.476;5.704;2023-07-30T13:15:03;5.00;;;1.55;;
80425;SDS011;69766;51.476;5.704;2023-07-30T13:17:30;5.38;;;1.30;;
80425;SDS011;69766;51.476;5.704;2023-07-30T13:19:56;5.18;;;1.38;;
80425;SDS011;69766;51.476;5.704;2023-07-30T13:22:22;6.13;;;1.77;;
80425;SDS011;69766;51.476;5.704;2023-07-30T13:24:48;5.53;;;1.52;;
80425;SDS011;69766;51.476;5.704;2023-07-30T13:27:13;5.22;;;1.23;;
80425;SDS011;69766;51.476;5.704;2023-07-30T13:29:39;5.32;;;1.15;;
80425;SDS011;69766;51.476;5.704;2023-07-30T13:32:05;7.75;;;1.95;;
80425;SDS011;69766;51.476;5.704;2023-07-30T13:34:31;4.80;;;1.20;;
80425;SDS011;69766;51.476;5.704;2023-07-30T13:36:57;6.25;;;1.25;;
80425;SDS011;69766;51.476;5.704;2023-07-30T13:39:22;6.55;;;1.30;;
80425;SDS011;69766;51.476;5.704;2023-07-30T13:41:48;12.18;;;2.45;;
80425;SDS011;69766;51.476;5.704;2023-07-30T13:44:14;5.75;;;0.77;;
80425;SDS011;69766;51.476;5.704;2023-07-30T13:46:40;4.97;;;0.88;;
80425;SDS011;69766;51.476;5.704;2023-07-30T13:49:06;2.72;;;0.82;;
80425;SDS011;69766;51.476;5.704;2023-07-30T13:51:32;4.55;;;1.23;;
80425;SDS011;69766;51.476;5.704;2023-07-30T13:54:01;3.42;;;1.20;;
80425;SDS011;69766;51.476;5.704;2023-07-30T13:56:27;4.75;;;1.38;;
80425;SDS011;69766;51.476;5.704;2023-07-30T13:58:54;8.07;;;1.13;;
80425;SDS011;69766;51.476;5.704;2023-07-30T14:01:20;5.43;;;1.02;;
80425;SDS011;69766;51.476;5.704;2023-07-30T14:03:45;4.90;;;1.10;;
80425;SDS011;69766;51.476;5.704;2023-07-30T14:06:11;5.85;;;1.20;;
80425;SDS011;69766;51.476;5.704;2023-07-30T14:08:37;6.57;;;1.55;;
80425;SDS011;69766;51.476;5.704;2023-07-30T14:11:03;3.50;;;1.10;;
80425;SDS011;69766;51.476;5.704;2023-07-30T14:13:28;2.80;;;0.90;;
80425;SDS011;69766;51.476;5.704;2023-07-30T14:15:54;5.75;;;1.10;;
80425;SDS011;69766;51.476;5.704;2023-07-30T14:18:20;5.95;;;1.40;;
80425;SDS011;69766;51.476;5.704;2023-07-30T14:20:46;4.22;;;1.20;;
80425;SDS011;69766;51.476;5.704;2023-07-30T14:23:12;9.85;;;1.42;;
80425;SDS011;69766;51.476;5.704;2023-07-30T14:25:38;4.57;;;1.38;;
80425;SDS011;69766;51.476;5.704;2023-07-30T14:28:04;3.80;;;1.10;;
80425;SDS011;69766;51.476;5.704;2023-07-30T14:30:30;5.90;;;1.40;;
80425;SDS011;69766;51.476;5.704;2023-07-30T14:32:55;5.43;;;1.00;;
80425;SDS011;69766;51.476;5.704;2023-07-30T14:35:21;4.05;;;1.00;;
80425;SDS011;69766;51.476;5.704;2023-07-30T14:37:47;9.50;;;2.08;;
80425;SDS011;69766;51.476;5.704;2023-07-30T14:40:14;4.63;;;0.95;;
80425;SDS011;69766;51.476;5.704;2023-07-30T14:42:40;6.22;;;1.42;;
80425;SDS011;69766;51.476;5.704;2023-07-30T14:45:06;4.57;;;0.93;;
80425;SDS011;69766;51.476;5.704;2023-07-30T14:47:32;5.20;;;1.42;;
80425;SDS011;69766;51.476;5.704;2023-07-30T14:49:58;7.20;;;1.10;;
80425;SDS011;69766;51.476;5.704;2023-07-30T14:52:24;7.90;;;1.98;;
80425;SDS011;69766;51.476;5.704;2023-07-30T14:54:50;8.20;;;1.98;;